Time;durP1;ratioP1;P1;durP2;ratioP2;P2;SDS_P1;SDS_P2;PMS_P1;PMS_P2;Temp;Humidity;BMP_temperature;BMP_pressure;BME280_temperature;BME280_humidity;BME280_pressure;Samples;Min_cycle;Max_cycle;Signal;HPM_P1;HPM_P2
2023/04/23 00:00:42;;;;;;;18.00;15.40;;;12.00;99.90;;;;;;5043660;28;20323;-34
2023/04/23 00:03:15;;;;;;;17.67;15.10;;;12.00;99.90;;;;;;5059113;28;20281;-35
2023/04/23 00:05:50;;;;;;;16.73;14.90;;;12.00;99.90;;;;;;5059019;28;20204;-35
2023/04/23 00:08:21;;;;;;;16.73;14.70;;;12.00;99.90;;;;;;5039225;28;23135;-34
2023/04/23 00:10:48;;;;;;;19.37;15.30;;;11.90;99.90;;;;;;5024644;28;20235;-35
2023/04/23 00:13:16;;;;;;;16.43;14.73;;;11.90;99.90;;;;;;5023264;28;20225;-34
2023/04/23 00:15:46;;;;;;;17.30;14.83;;;11.90;99.90;;;;;;5022560;28;20204;-35
2023/04/23 00:18:18;;;;;;;16.90;14.53;;;11.90;99.90;;;;;;5068048;28;20246;-34
2023/04/23 00:20:50;;;;;;;16.97;14.80;;;11.90;99.90;;;;;;5043436;28;20239;-35
2023/04/23 00:23:20;;;;;;;16.83;14.93;;;11.90;99.90;;;;;;5043655;28;20721;-34
2023/04/23 00:25:50;;;;;;;18.53;15.27;;;11.90;99.90;;;;;;5055911;28;20654;-35
2023/04/23 00:28:17;;;;;;;17.43;15.63;;;11.90;99.90;;;;;;5053807;28;20197;-35
2023/04/23 00:30:48;;;;;;;17.73;14.85;;;11.90;99.90;;;;;;5023404;28;20367;-35
2023/04/23 00:33:17;;;;;;;17.13;15.33;;;11.90;99.90;;;;;;5023282;28;20651;-35
2023/04/23 00:35:45;;;;;;;18.37;14.33;;;11.90;99.90;;;;;;5023975;28;20240;-35
2023/04/23 00:38:14;;;;;;;17.03;14.43;;;11.90;99.90;;;;;;5023821;28;20646;-35
2023/04/23 00:40:46;;;;;;;17.33;15.23;;;11.90;99.90;;;;;;5054808;28;20320;-35
2023/04/23 00:43:16;;;;;;;16.77;14.50;;;11.90;99.90;;;;;;5023222;28;20670;-35
2023/04/23 00:45:46;;;;;;;16.73;14.20;;;11.90;99.90;;;;;;5023670;28;20224;-34
2023/04/23 00:48:20;;;;;;;19.43;14.53;;;11.90;99.90;;;;;;5036357;28;20212;-35
2023/04/23 00:50:50;;;;;;;16.03;14.30;;;11.90;99.90;;;;;;5043049;28;20310;-35
2023/04/23 00:53:19;;;;;;;16.67;13.83;;;12.00;99.90;;;;;;5057919;28;20222;-35
2023/04/23 00:55:46;;;;;;;15.80;14.10;;;12.00;99.90;;;;;;5043267;28;20330;-35
2023/04/23 00:58:13;;;;;;;16.85;15.05;;;12.00;99.90;;;;;;5051913;28;20285;-35
2023/04/23 01:00:50;;;;;;;16.13;14.43;;;12.00;99.90;;;;;;5023407;28;20224;-35
2023/04/23 01:03:20;;;;;;;17.07;14.57;;;12.00;99.90;;;;;;5027615;28;20342;-35
2023/04/23 01:05:48;;;;;;;16.47;14.67;;;12.00;99.90;;;;;;5040055;28;20246;-34
2023/04/23 01:08:22;;;;;;;17.13;14.60;;;12.00;99.90;;;;;;5043752;28;20251;-35
2023/04/23 01:10:50;;;;;;;16.50;14.80;;;12.00;99.90;;;;;;5057872;28;20219;-34
2023/04/23 01:13:21;;;;;;;16.37;14.27;;;12.00;99.90;;;;;;5040413;28;20310;-35
2023/04/23 01:15:53;;;;;;;16.67;14.63;;;12.00;99.90;;;;;;5032405;28;20291;-34
2023/04/23 01:18:23;;;;;;;15.23;13.60;;;12.00;99.90;;;;;;5027339;28;20235;-34
2023/04/23 01:20:52;;;;;;;16.70;14.47;;;12.00;99.90;;;;;;5042695;28;20236;-34
2023/04/23 01:23:26;;;;;;;16.77;13.73;;;12.10;99.90;;;;;;5057611;28;20758;-34
2023/04/23 01:25:54;;;;;;;16.43;14.13;;;12.10;99.90;;;;;;5042967;28;20200;-35
2023/04/23 01:28:28;;;;;;;15.30;13.70;;;12.10;99.90;;;;;;5056578;28;20258;-35
2023/04/23 01:31:01;;;;;;;15.07;13.50;;;12.10;99.90;;;;;;5041469;28;20713;-34
2023/04/23 01:33:31;;;;;;;17.93;14.47;;;12.10;99.90;;;;;;5041624;28;20212;-35
2023/04/23 01:36:01;;;;;;;16.87;14.47;;;12.20;99.90;;;;;;5022618;28;20621;-35
2023/04/23 01:38:32;;;;;;;16.03;14.20;;;12.20;99.90;;;;;;5022226;28;20221;-35
2023/04/23 01:41:04;;;;;;;14.63;13.13;;;12.20;99.90;;;;;;5026740;28;20212;-35
2023/04/23 01:43:31;;;;;;;15.43;13.57;;;12.20;99.90;;;;;;5025060;28;20201;-35
2023/04/23 01:46:00;;;;;;;15.53;13.60;;;12.20;99.90;;;;;;5026513;28;20799;-35
2023/04/23 01:48:30;;;;;;;14.47;12.90;;;12.20;99.90;;;;;;5035630;28;20219;-35
2023/04/23 01:50:58;;;;;;;14.63;13.13;;;12.20;99.90;;;;;;5024769;28;20221;-35
2023/04/23 01:53:32;;;;;;;15.25;13.40;;;12.20;99.90;;;;;;5026815;28;20212;-34
2023/04/23 01:56:01;;;;;;;14.50;13.10;;;12.20;99.90;;;;;;5025404;28;20255;-35
2023/04/23 01:58:30;;;;;;;15.57;13.50;;;12.30;99.90;;;;;;5025300;28;20658;-35
2023/04/23 02:00:59;;;;;;;15.10;13.50;;;12.30;99.90;;;;;;5026324;28;20263;-35
2023/04/23 02:03:30;;;;;;;14.52;13.02;;;12.30;99.90;;;;;;5025163;28;20278;-35
2023/04/23 02:05:59;;;;;;;14.57;12.47;;;12.30;99.90;;;;;;5025970;28;20240;-35
2023/04/23 02:08:27;;;;;;;13.87;12.30;;;12.30;99.90;;;;;;5025232;28;20221;-35
2023/04/23 02:10:55;;;;;;;13.90;12.37;;;12.30;99.90;;;;;;5025949;28;20201;-35
2023/04/23 02:13:22;;;;;;;13.98;12.48;;;12.40;99.90;;;;;;5024085;28;20410;-34
2023/04/23 02:15:52;;;;;;;14.07;12.47;;;12.40;99.90;;;;;;5031652;28;20192;-35
2023/04/23 02:18:21;;;;;;;14.27;12.77;;;12.40;99.90;;;;;;5045483;28;20877;-35
2023/04/23 02:20:53;;;;;;;14.30;11.87;;;12.40;99.90;;;;;;5044084;28;20294;-35
2023/04/23 02:23:23;;;;;;;13.70;11.87;;;12.40;99.90;;;;;;5046316;28;20251;-34
2023/04/23 02:25:51;;;;;;;14.77;13.03;;;12.40;99.90;;;;;;5034109;28;20217;-35
2023/04/23 02:28:18;;;;;;;14.10;12.70;;;12.50;99.90;;;;;;5025002;28;20677;-35
2023/04/23 02:30:48;;;;;;;14.23;12.63;;;12.50;99.90;;;;;;5008567;28;20224;-35
2023/04/23 02:33:15;;;;;;;14.33;12.37;;;12.50;99.90;;;;;;5040521;28;20319;-35
2023/04/23 02:35:47;;;;;;;13.10;11.80;;;12.50;99.90;;;;;;5026157;28;20296;-35
2023/04/23 02:38:14;;;;;;;13.87;12.37;;;12.50;99.90;;;;;;5025652;28;20356;-35
2023/04/23 02:40:44;;;;;;;14.67;12.73;;;12.50;99.90;;;;;;5025469;28;20240;-35
2023/04/23 02:43:11;;;;;;;14.13;12.63;;;12.50;99.90;;;;;;5040557;28;20297;-35
2023/04/23 02:45:41;;;;;;;14.03;12.60;;;12.50;99.90;;;;;;5026284;28;20664;-35
2023/04/23 02:48:11;;;;;;;13.63;12.23;;;12.50;99.90;;;;;;5040350;28;20319;-35
2023/04/23 02:50:38;;;;;;;14.93;12.60;;;12.50;99.90;;;;;;5024933;28;20213;-35
2023/04/23 02:53:08;;;;;;;15.53;13.17;;;12.50;99.90;;;;;;5042320;28;20653;-35
2023/04/23 02:55:43;;;;;;;14.33;12.87;;;12.50;99.90;;;;;;5045217;28;20248;-35
2023/04/23 02:58:10;;;;;;;13.30;12.00;;;12.40;99.90;;;;;;5044333;28;20653;-35
2023/04/23 03:00:38;;;;;;;14.20;12.63;;;12.40;99.90;;;;;;5026947;28;20225;-35
2023/04/23 03:03:05;;;;;;;13.02;11.52;;;12.40;99.90;;;;;;5025631;28;20205;-35
2023/04/23 03:05:37;;;;;;;14.33;12.67;;;12.40;99.90;;;;;;5023766;28;20204;-35
2023/04/23 03:08:06;;;;;;;15.00;13.43;;;12.30;99.90;;;;;;5025338;28;21119;-35
2023/04/23 03:10:36;;;;;;;14.63;12.10;;;12.30;99.90;;;;;;5025186;28;20229;-35
2023/04/23 03:13:03;;;;;;;15.00;12.40;;;12.30;99.90;;;;;;5024690;28;20201;-35
2023/04/23 03:15:33;;;;;;;13.93;12.43;;;12.20;99.90;;;;;;5024992;28;20298;-35
2023/04/23 03:18:03;;;;;;;14.23;12.40;;;12.20;99.90;;;;;;5025171;28;20363;-35
2023/04/23 03:20:32;;;;;;;15.73;12.82;;;12.20;99.90;;;;;;5039901;28;20322;-35
2023/04/23 03:23:05;;;;;;;13.45;12.05;;;12.10;99.90;;;;;;5024700;28;20201;-35
2023/04/23 03:25:37;;;;;;;15.37;12.87;;;12.10;99.90;;;;;;5024618;28;20715;-35
2023/04/23 03:28:06;;;;;;;15.87;13.40;;;12.10;99.90;;;;;;5023724;28;20683;-35
2023/04/23 03:30:34;;;;;;;15.30;11.60;;;12.00;99.90;;;;;;5024642;28;20701;-35
2023/04/23 03:33:04;;;;;;;16.23;12.30;;;12.00;99.90;;;;;;5025270;28;20217;-35
2023/04/23 03:35:31;;;;;;;14.13;12.63;;;12.00;99.90;;;;;;5039386;28;20579;-35
2023/04/23 03:37:58;;;;;;;13.80;12.27;;;11.90;99.90;;;;;;5022720;28;20682;-34
2023/04/23 03:40:28;;;;;;;13.93;12.43;;;11.90;99.90;;;;;;5024894;28;20918;-35
2023/04/23 03:42:56;;;;;;;13.57;12.10;;;11.90;99.90;;;;;;5023758;28;20690;-35
2023/04/23 03:45:24;;;;;;;14.53;11.93;;;11.80;99.90;;;;;;5025196;28;20217;-35
2023/04/23 03:47:52;;;;;;;15.80;10.80;;;11.80;99.90;;;;;;5040653;28;20205;-35
2023/04/23 03:50:19;;;;;;;13.57;12.00;;;11.80;99.90;;;;;;5029874;28;20220;-35
2023/04/23 03:52:49;;;;;;;13.90;11.47;;;11.80;99.90;;;;;;5043929;28;20420;-34
2023/04/23 03:55:19;;;;;;;12.90;11.07;;;11.80;99.90;;;;;;5042959;28;20235;-35
2023/04/23 03:57:49;;;;;;;12.80;11.50;;;11.80;99.90;;;;;;5043152;28;20624;-35
2023/04/23 04:00:20;;;;;;;12.07;10.77;;;11.80;99.90;;;;;;5044285;28;20200;-35
2023/04/23 04:02:50;;;;;;;13.87;10.87;;;11.80;99.90;;;;;;5043536;28;20228;-35
2023/04/23 04:05:17;;;;;;;12.03;10.77;;;11.70;99.90;;;;;;5042623;28;20204;-35
2023/04/23 04:07:47;;;;;;;13.20;10.93;;;11.70;99.90;;;;;;5042780;28;20211;-35
2023/04/23 04:10:17;;;;;;;12.83;11.20;;;11.70;99.90;;;;;;5042525;28;20309;-35
2023/04/23 04:12:46;;;;;;;12.37;10.97;;;11.70;99.90;;;;;;5043006;28;20265;-35
2023/04/23 04:15:15;;;;;;;14.40;11.43;;;11.70;99.90;;;;;;5042318;28;20230;-35
2023/04/23 04:17:44;;;;;;;13.60;10.57;;;11.70;99.90;;;;;;5043703;28;20212;-35
2023/04/23 04:20:14;;;;;;;11.60;10.40;;;11.60;99.90;;;;;;5042553;28;20196;-35
2023/04/23 04:22:45;;;;;;;12.90;11.17;;;11.60;99.90;;;;;;5042148;28;20694;-35
2023/04/23 04:25:15;;;;;;;13.27;10.80;;;11.60;99.90;;;;;;5041591;28;20197;-35
2023/04/23 04:27:43;;;;;;;11.83;10.17;;;11.60;99.90;;;;;;5041047;28;20701;-35
2023/04/23 04:30:13;;;;;;;11.83;9.97;;;11.50;99.90;;;;;;5043364;28;20196;-35
2023/04/23 04:32:46;;;;;;;12.93;10.90;;;11.50;99.90;;;;;;5043790;28;20208;-35
2023/04/23 04:35:15;;;;;;;11.70;10.50;;;11.50;99.90;;;;;;5042790;28;20207;-34
2023/04/23 04:37:43;;;;;;;13.00;10.70;;;11.50;99.90;;;;;;5041889;28;20644;-34
2023/04/23 04:40:11;;;;;;;13.60;10.10;;;11.40;99.90;;;;;;5036868;28;20252;-34
2023/04/23 04:42:38;;;;;;;11.30;10.10;;;11.40;99.90;;;;;;5021851;28;20236;-34
2023/04/23 04:45:09;;;;;;;11.70;10.40;;;11.40;99.90;;;;;;5038389;28;20217;-34
2023/04/23 04:47:38;;;;;;;12.53;10.20;;;11.40;99.90;;;;;;5041700;28;20283;-34
2023/04/23 04:50:09;;;;;;;10.80;9.60;;;11.40;99.90;;;;;;5042256;28;20210;-34
2023/04/23 04:52:38;;;;;;;12.47;10.27;;;11.40;99.90;;;;;;5041684;28;20287;-34
2023/04/23 04:55:08;;;;;;;11.83;9.77;;;11.40;99.90;;;;;;5043124;28;20695;-35
2023/04/23 04:57:35;;;;;;;12.47;10.67;;;11.40;99.90;;;;;;5041849;28;20737;-34
2023/04/23 05:00:22;;;;;;;13.43;10.17;;;11.40;99.90;;;;;;5043379;28;20223;-34
2023/04/23 05:02:50;;;;;;;10.30;9.27;;;11.40;99.90;;;;;;5026527;28;20220;-35
2023/04/23 05:05:18;;;;;;;11.90;9.70;;;11.40;99.90;;;;;;5041467;28;20204;-34
2023/04/23 05:07:46;;;;;;;13.93;9.27;;;11.40;99.90;;;;;;5032748;28;20211;-34
2023/04/23 05:10:14;;;;;;;11.43;9.33;;;11.40;99.90;;;;;;5037872;28;20741;-33
2023/04/23 05:12:44;;;;;;;12.13;9.30;;;11.40;99.90;;;;;;5021892;28;20217;-33
2023/04/23 05:15:13;;;;;;;10.30;8.70;;;11.40;99.90;;;;;;5037428;28;20357;-34
2023/04/23 05:17:40;;;;;;;10.63;9.37;;;11.40;99.90;;;;;;5032476;28;20692;-33
2023/04/23 05:20:12;;;;;;;12.03;9.87;;;11.40;99.90;;;;;;5046010;28;20694;-33
2023/04/23 05:22:41;;;;;;;10.87;8.97;;;11.40;99.90;;;;;;5045066;28;20227;-33
2023/04/23 05:25:10;;;;;;;10.80;9.07;;;11.40;99.90;;;;;;5045165;28;20219;-33
2023/04/23 05:27:38;;;;;;;12.27;9.60;;;11.50;99.90;;;;;;5044640;28;20669;-33
2023/04/23 05:30:09;;;;;;;15.67;8.23;;;11.50;99.90;;;;;;5046433;28;20243;-34
2023/04/23 05:32:39;;;;;;;9.93;8.43;;;11.50;99.90;;;;;;5038351;28;20356;-33
2023/04/23 05:35:09;;;;;;;9.60;7.70;;;11.50;99.90;;;;;;5027250;28;20212;-33
2023/04/23 05:37:38;;;;;;;8.13;7.10;;;11.60;99.90;;;;;;5022446;28;20344;-33
2023/04/23 05:40:08;;;;;;;10.73;7.67;;;11.60;99.90;;;;;;5033047;28;20291;-33
2023/04/23 05:42:38;;;;;;;9.67;6.77;;;11.60;99.90;;;;;;5030950;28;20777;-34
2023/04/23 05:45:05;;;;;;;7.77;6.90;;;11.70;99.90;;;;;;5035045;28;20295;-34
2023/04/23 05:47:35;;;;;;;8.00;6.70;;;11.70;99.90;;;;;;5031852;28;20201;-33
2023/04/23 05:50:05;;;;;;;9.43;6.40;;;11.70;99.90;;;;;;5033747;28;20287;-34
2023/04/23 05:52:38;;;;;;;8.93;6.57;;;11.80;99.90;;;;;;5032466;28;20211;-33
2023/04/23 05:55:11;;;;;;;8.50;5.93;;;11.80;99.90;;;;;;5041275;28;20221;-34
2023/04/23 05:57:42;;;;;;;7.97;5.87;;;11.90;99.90;;;;;;5061911;28;20285;-33
2023/04/23 06:00:10;;;;;;;7.47;5.40;;;11.90;99.90;;;;;;5063772;28;20333;-33
2023/04/23 06:02:40;;;;;;;8.47;5.43;;;11.90;99.90;;;;;;5032955;28;20290;-34
2023/04/23 06:05:12;;;;;;;8.63;5.43;;;12.00;99.90;;;;;;5037988;28;20204;-34
2023/04/23 06:07:44;;;;;;;7.47;4.83;;;12.00;99.90;;;;;;5037900;28;20206;-33
2023/04/23 06:10:14;;;;;;;7.73;5.57;;;12.10;99.90;;;;;;5035059;28;20208;-33
2023/04/23 06:12:43;;;;;;;7.33;5.40;;;12.10;99.90;;;;;;5044675;28;21089;-33
2023/04/23 06:15:11;;;;;;;6.20;4.77;;;12.20;99.90;;;;;;5044117;28;20745;-34
2023/04/23 06:17:42;;;;;;;12.00;5.87;;;12.30;99.90;;;;;;5039542;28;20610;-34
2023/04/23 06:20:14;;;;;;;6.87;5.00;;;12.30;99.90;;;;;;5045332;28;20235;-34
2023/04/23 06:22:44;;;;;;;6.77;5.30;;;12.40;99.90;;;;;;5041257;28;20250;-34
2023/04/23 06:25:15;;;;;;;6.83;4.87;;;12.40;99.90;;;;;;5039648;28;20204;-34
2023/04/23 06:27:50;;;;;;;7.63;4.50;;;12.50;99.90;;;;;;5037657;28;20211;-34
2023/04/23 06:30:17;;;;;;;6.27;4.50;;;12.50;99.90;;;;;;5037075;28;20200;-34
2023/04/23 06:32:46;;;;;;;6.77;4.67;;;12.60;99.90;;;;;;5043286;28;20200;-34
2023/04/23 06:35:16;;;;;;;6.20;4.27;;;12.60;99.90;;;;;;5026303;28;20267;-34
2023/04/23 06:37:45;;;;;;;5.30;4.00;;;12.70;99.90;;;;;;5040252;28;20223;-34
2023/04/23 06:40:15;;;;;;;7.53;4.37;;;12.70;99.90;;;;;;5050391;28;20200;-34
2023/04/23 06:42:44;;;;;;;8.43;4.23;;;12.80;99.90;;;;;;5061362;28;20314;-34
2023/04/23 06:45:11;;;;;;;11.30;3.80;;;12.80;99.90;;;;;;5028453;28;20197;-34
2023/04/23 06:47:38;;;;;;;8.47;4.17;;;12.90;99.90;;;;;;5025465;28;20216;-34
2023/04/23 06:50:07;;;;;;;7.40;3.67;;;13.00;99.90;;;;;;5030726;28;20705;-34
2023/04/23 06:52:39;;;;;;;6.07;3.60;;;13.00;99.90;;;;;;5041264;28;20307;-34
2023/04/23 06:55:12;;;;;;;5.30;3.40;;;13.00;99.90;;;;;;5040287;28;20216;-34
2023/04/23 06:57:46;;;;;;;6.03;3.40;;;13.10;99.90;;;;;;5044166;28;20293;-34
2023/04/23 07:00:16;;;;;;;6.30;3.53;;;13.10;99.90;;;;;;5037026;28;20239;-34
2023/04/23 07:02:44;;;;;;;6.77;3.17;;;13.20;99.90;;;;;;5043620;28;20239;-34
2023/04/23 07:05:12;;;;;;;10.70;4.40;;;13.20;99.90;;;;;;5025819;28;20638;-34
2023/04/23 07:07:42;;;;;;;9.83;3.73;;;13.30;99.90;;;;;;5061328;28;20227;-34
2023/04/23 07:10:12;;;;;;;6.17;3.27;;;13.30;99.90;;;;;;5051459;28;20201;-34
2023/04/23 07:12:46;;;;;;;5.33;2.93;;;13.40;99.90;;;;;;5038370;28;20220;-34
2023/04/23 07:15:15;;;;;;;6.20;3.00;;;13.40;99.90;;;;;;5030755;28;20291;-34
2023/04/23 07:17:45;;;;;;;9.10;3.47;;;13.50;99.90;;;;;;5039603;28;20248;-34
2023/04/23 07:20:12;;;;;;;5.07;2.67;;;13.50;99.90;;;;;;5033233;28;20216;-34
2023/04/23 07:22:39;;;;;;;5.83;3.00;;;13.60;99.90;;;;;;5041292;28;20232;-34
2023/04/23 07:25:11;;;;;;;7.93;3.00;;;13.60;99.90;;;;;;5030678;28;20208;-34
2023/04/23 07:27:43;;;;;;;6.80;2.87;;;13.70;99.90;;;;;;5042508;28;20215;-34
2023/04/23 07:30:13;;;;;;;5.80;2.97;;;13.70;99.90;;;;;;5030039;28;20551;-34
2023/04/23 07:32:40;;;;;;;7.20;2.60;;;13.80;99.90;;;;;;5040944;28;20204;-34
2023/04/23 07:35:09;;;;;;;6.83;2.87;;;13.80;99.90;;;;;;5039514;28;20841;-34
2023/04/23 07:37:39;;;;;;;8.43;3.03;;;13.90;99.90;;;;;;5019336;28;20452;-34
2023/04/23 07:40:07;;;;;;;5.23;2.60;;;13.90;99.90;;;;;;5044494;28;20312;-34
2023/04/23 07:42:38;;;;;;;5.00;2.60;;;14.00;99.90;;;;;;5038715;28;20989;-34
2023/04/23 07:45:06;;;;;;;7.67;3.03;;;14.00;99.90;;;;;;5037386;28;20202;-34
2023/04/23 07:47:35;;;;;;;5.10;2.50;;;14.10;99.90;;;;;;5021371;28;20213;-34
2023/04/23 07:50:08;;;;;;;7.53;3.00;;;14.20;99.90;;;;;;5031422;28;20772;-34
2023/04/23 07:52:40;;;;;;;7.50;3.30;;;14.20;99.90;;;;;;5023889;28;20316;-34
2023/04/23 07:55:13;;;;;;;6.40;3.00;;;14.30;99.90;;;;;;5028215;28;20215;-34
2023/04/23 07:57:42;;;;;;;7.23;3.13;;;14.30;99.90;;;;;;5036839;28;20305;-34
2023/04/23 08:00:13;;;;;;;8.73;3.00;;;14.40;99.90;;;;;;5024227;28;20305;-34
2023/04/23 08:02:42;;;;;;;9.90;2.97;;;14.40;99.90;;;;;;5038696;28;20323;-34
2023/04/23 08:05:09;;;;;;;6.13;3.23;;;14.50;99.90;;;;;;5041015;28;20888;-34
2023/04/23 08:07:39;;;;;;;5.60;2.50;;;14.50;99.90;;;;;;5041010;28;20207;-34
2023/04/23 08:10:07;;;;;;;6.57;2.80;;;14.50;99.90;;;;;;5040587;28;20231;-34
2023/04/23 08:12:34;;;;;;;4.65;2.30;;;14.60;99.90;;;;;;5023807;28;20674;-34
2023/04/23 08:15:05;;;;;;;7.68;2.45;;;14.70;99.90;;;;;;5033686;28;20220;-34
2023/04/23 08:17:39;;;;;;;7.10;3.45;;;14.70;99.90;;;;;;5041994;28;20203;-34
2023/04/23 08:20:09;;;;;;;9.02;3.03;;;14.80;99.90;;;;;;5024889;28;20205;-34
2023/04/23 08:22:37;;;;;;;6.13;2.80;;;14.80;99.90;;;;;;5034650;28;20601;-34
2023/04/23 08:25:07;;;;;;;4.77;2.30;;;14.90;99.90;;;;;;5034710;28;20324;-34
2023/04/23 08:27:34;;;;;;;10.85;3.10;;;15.00;99.90;;;;;;5022839;28;20204;-34
2023/04/23 08:30:06;;;;;;;7.95;2.88;;;15.00;99.90;;;;;;5063697;28;20648;-34
2023/04/23 08:32:33;;;;;;;5.63;2.90;;;15.10;99.90;;;;;;5031584;28;20216;-34
2023/04/23 08:35:00;;;;;;;6.20;2.30;;;15.20;99.90;;;;;;5025597;28;20212;-34
2023/04/23 08:37:27;;;;;;;5.13;2.53;;;15.30;99.90;;;;;;5041377;28;20201;-34
2023/04/23 08:39:57;;;;;;;5.32;2.38;;;15.30;99.90;;;;;;5032570;28;20343;-34
2023/04/23 08:42:56;;;;;;;5.68;2.28;;;15.40;99.90;;;;;;5021972;28;20302;-34
2023/04/23 08:45:25;;;;;;;5.60;2.20;;;15.50;99.90;;;;;;5026253;28;20683;-34
2023/04/23 08:47:57;;;;;;;6.38;2.58;;;15.60;99.90;;;;;;5021866;28;20213;-34
2023/04/23 08:50:32;;;;;;;7.32;2.25;;;15.70;99.90;;;;;;5043941;28;20685;-34
2023/04/23 08:53:06;;;;;;;5.57;2.60;;;15.70;99.90;;;;;;5054782;28;20215;-34
2023/04/23 08:55:38;;;;;;;6.15;2.30;;;15.80;99.90;;;;;;5050006;28;20239;-34
2023/04/23 08:58:09;;;;;;;5.45;2.00;;;15.80;99.90;;;;;;5023007;28;20298;-34
2023/04/23 09:00:37;;;;;;;3.87;1.90;;;15.80;99.90;;;;;;5028139;28;20319;-34
2023/04/23 09:03:07;;;;;;;6.55;2.28;;;15.90;99.90;;;;;;5023875;28;20256;-34
2023/04/23 09:05:41;;;;;;;7.25;2.40;;;15.90;99.90;;;;;;5035474;28;20212;-34
2023/04/23 09:08:10;;;;;;;5.55;1.98;;;15.90;99.90;;;;;;5039252;28;20222;-34
2023/04/23 09:10:43;;;;;;;6.93;2.47;;;16.00;99.90;;;;;;5035019;28;20200;-34
2023/04/23 09:13:13;;;;;;;4.72;1.60;;;16.00;99.90;;;;;;5021883;28;20228;-34
2023/04/23 09:15:43;;;;;;;9.13;2.13;;;16.10;99.90;;;;;;5042003;28;20208;-34
2023/04/23 09:18:12;;;;;;;4.80;1.77;;;16.10;99.90;;;;;;5027645;28;20212;-34
2023/04/23 09:20:39;;;;;;;5.50;1.70;;;16.20;99.90;;;;;;5034639;28;20656;-34
2023/04/23 09:23:13;;;;;;;5.35;2.05;;;16.30;99.90;;;;;;5036751;28;20215;-34
2023/04/23 09:25:43;;;;;;;6.38;2.17;;;16.30;99.90;;;;;;5036605;28;20696;-34
2023/04/23 09:28:14;;;;;;;6.20;2.13;;;16.40;99.90;;;;;;5025567;28;20641;-34
2023/04/23 09:30:47;;;;;;;5.22;1.83;;;16.40;99.90;;;;;;5035350;28;20249;-34
2023/04/23 09:33:16;;;;;;;8.32;2.50;;;16.50;99.90;;;;;;5023990;28;20211;-34
2023/04/23 09:35:47;;;;;;;5.57;2.03;;;16.60;99.90;;;;;;5041034;28;20295;-34
2023/04/23 09:38:18;;;;;;;5.72;2.20;;;16.70;99.90;;;;;;5023183;28;20209;-34
2023/04/23 09:40:49;;;;;;;4.63;1.90;;;16.80;99.90;;;;;;5022298;28;20213;-34
2023/04/23 09:43:18;;;;;;;8.32;2.25;;;16.90;99.90;;;;;;5021901;28;20229;-34
2023/04/23 09:45:49;;;;;;;4.82;1.85;;;16.90;99.90;;;;;;5021554;28;20713;-34
2023/04/23 09:48:20;;;;;;;4.13;1.95;;;17.00;99.90;;;;;;5035907;28;20224;-34
2023/04/23 09:50:47;;;;;;;7.18;2.08;;;17.00;99.90;;;;;;5034654;28;20258;-34
2023/04/23 09:53:14;;;;;;;5.85;2.00;;;17.00;99.90;;;;;;5040243;28;20254;-34
2023/04/23 09:55:44;;;;;;;5.95;1.70;;;17.10;99.90;;;;;;5041137;28;20797;-34
2023/04/23 09:58:14;;;;;;;5.13;1.90;;;17.10;99.90;;;;;;5037771;28;20217;-34
2023/04/23 10:00:44;;;;;;;6.32;1.92;;;17.10;99.90;;;;;;5034402;28;20212;-34
2023/04/23 10:03:14;;;;;;;6.47;2.10;;;17.20;99.90;;;;;;5026918;28;20554;-34
2023/04/23 10:05:45;;;;;;;6.28;1.58;;;17.20;99.90;;;;;;5041168;28;20634;-34
2023/04/23 10:08:33;;;;;;;3.90;1.70;;;17.30;99.90;;;;;;5018951;28;20220;-34
2023/04/23 10:11:02;;;;;;;5.57;1.55;;;17.30;99.90;;;;;;5032313;28;20569;-34
2023/04/23 10:13:46;;;;;;;4.65;1.77;;;17.30;99.90;;;;;;5035615;28;20213;-34
2023/04/23 10:16:16;;;;;;;7.05;1.65;;;17.40;99.90;;;;;;5037673;28;20255;-34
2023/04/23 10:19:00;;;;;;;4.35;1.70;;;17.40;99.90;;;;;;5026321;28;20239;-34
2023/04/23 10:21:33;;;;;;;5.45;1.60;;;17.50;99.90;;;;;;5027034;28;20795;-34
2023/04/23 10:24:28;;;;;;;6.95;1.88;;;17.60;99.90;;;;;;5032625;28;20336;-34
2023/04/23 10:27:01;;;;;;;4.40;1.83;;;17.60;99.90;;;;;;5025383;28;20300;-34
2023/04/23 10:29:40;;;;;;;3.90;1.58;;;17.70;99.90;;;;;;5033095;28;20228;-34
2023/04/23 10:32:09;;;;;;;7.18;2.10;;;17.70;99.90;;;;;;5036846;28;20226;-34
2023/04/23 10:34:40;;;;;;;3.95;1.45;;;17.80;99.90;;;;;;5046285;28;20196;-34
2023/04/23 10:37:15;;;;;;;6.82;1.67;;;17.80;99.90;;;;;;5036716;28;20216;-34
2023/04/23 10:39:44;;;;;;;6.82;1.50;;;17.80;99.90;;;;;;5027190;28;20204;-34
2023/04/23 10:42:17;;;;;;;4.53;1.50;;;17.80;99.90;;;;;;5041538;28;20614;-34
2023/04/23 10:44:47;;;;;;;4.28;1.27;;;17.90;99.90;;;;;;5044915;28;20209;-34
2023/04/23 10:47:32;;;;;;;5.85;1.70;;;17.90;99.90;;;;;;5036621;28;20196;-34
2023/04/23 10:50:29;;;;;;;4.25;1.52;;;17.90;99.90;;;;;;5023803;28;20759;-34
2023/04/23 10:53:01;;;;;;;7.43;1.73;;;18.00;99.90;;;;;;5025961;28;20240;-34
2023/04/23 10:55:31;;;;;;;9.23;1.88;;;18.00;99.90;;;;;;5026185;28;20204;-34
2023/04/23 10:58:04;;;;;;;6.07;2.08;;;18.00;99.90;;;;;;5029394;28;20278;-34
2023/04/23 11:00:44;;;;;;;4.15;1.50;;;18.00;99.90;;;;;;5032324;28;20612;-34
2023/04/23 11:03:38;;;;;;;5.13;1.63;;;18.10;99.90;;;;;;5049783;28;20661;-34
2023/04/23 11:06:38;;;;;;;6.18;1.55;;;18.10;99.90;;;;;;5035110;28;20840;-34
2023/04/23 11:09:29;;;;;;;5.35;1.75;;;18.10;99.90;;;;;;5041180;28;20222;-34
2023/04/23 11:12:03;;;;;;;8.20;1.83;;;18.10;99.90;;;;;;5038567;28;20536;-34
2023/04/23 11:14:58;;;;;;;5.88;1.77;;;18.10;99.90;;;;;;5042728;28;20296;-35
2023/04/23 11:17:33;;;;;;;6.15;1.83;;;18.10;99.90;;;;;;5040633;28;20605;-34
2023/04/23 11:20:10;;;;;;;5.82;1.48;;;18.10;99.90;;;;;;5043734;28;20216;-34
2023/04/23 11:22:37;;;;;;;5.57;1.90;;;18.20;99.90;;;;;;5039634;28;20688;-34
2023/04/23 11:25:12;;;;;;;6.10;1.63;;;18.20;99.90;;;;;;5044042;28;20295;-34
2023/04/23 11:27:43;;;;;;;4.65;1.98;;;18.20;99.90;;;;;;5026024;28;20287;-34
2023/04/23 11:30:20;;;;;;;6.13;1.63;;;18.20;99.90;;;;;;5032854;28;20332;-34
2023/04/23 11:32:58;;;;;;;6.35;1.70;;;18.20;99.90;;;;;;5038263;28;20222;-34
2023/04/23 11:35:31;;;;;;;5.75;2.00;;;18.30;99.90;;;;;;5039165;28;20307;-35
2023/04/23 11:37:58;;;;;;;5.80;1.95;;;18.30;99.90;;;;;;5026955;28;20205;-34
2023/04/23 11:40:29;;;;;;;6.63;1.85;;;18.30;99.90;;;;;;5023358;28;20694;-34
2023/04/23 11:42:59;;;;;;;4.20;1.80;;;18.40;99.90;;;;;;5022008;28;20228;-35
2023/04/23 11:45:29;;;;;;;11.35;1.92;;;18.40;99.90;;;;;;5035473;28;20327;-34
2023/04/23 11:48:01;;;;;;;7.57;1.70;;;18.50;99.90;;;;;;5031388;28;20295;-34
2023/04/23 11:50:34;;;;;;;7.22;1.55;;;18.50;99.90;;;;;;5041190;28;20208;-34
2023/04/23 11:53:09;;;;;;;5.55;1.60;;;18.50;99.90;;;;;;5031652;28;20256;-34
2023/04/23 11:55:42;;;;;;;4.55;1.67;;;18.60;99.90;;;;;;5033224;28;20286;-34
2023/04/23 11:58:17;;;;;;;2.85;1.30;;;18.60;99.90;;;;;;5040975;28;20323;-34
2023/04/23 12:00:48;;;;;;;5.78;1.50;;;18.60;99.90;;;;;;5023643;28;20217;-34
2023/04/23 12:03:16;;;;;;;4.10;1.70;;;18.70;99.90;;;;;;5041202;28;20273;-34
2023/04/23 12:05:44;;;;;;;5.22;1.85;;;18.70;99.90;;;;;;5036276;28;20207;-34
2023/04/23 12:08:13;;;;;;;4.68;1.20;;;18.80;99.90;;;;;;5028527;28;20211;-34
2023/04/23 12:10:49;;;;;;;4.30;1.58;;;18.80;99.90;;;;;;5038249;28;20234;-34
2023/04/23 12:13:21;;;;;;;6.00;1.95;;;18.80;99.90;;;;;;5037409;28;20216;-34
2023/04/23 12:15:55;;;;;;;4.75;1.50;;;18.80;99.90;;;;;;5025023;28;20208;-34
2023/04/23 12:18:29;;;;;;;5.90;1.35;;;18.70;99.90;;;;;;5034955;28;20220;-34
2023/04/23 12:21:13;;;;;;;5.20;1.42;;;18.70;99.90;;;;;;5030663;28;20236;-34
2023/04/23 12:23:43;;;;;;;6.82;1.58;;;18.60;99.90;;;;;;5034276;28;20227;-34
2023/04/23 12:26:13;;;;;;;5.43;1.15;;;18.60;99.90;;;;;;5043268;28;20216;-34
2023/04/23 12:28:51;;;;;;;5.82;1.52;;;18.40;99.90;;;;;;5037130;28;20204;-34
2023/04/23 12:31:25;;;;;;;4.43;1.20;;;18.30;99.90;;;;;;5028442;28;20562;-34
2023/04/23 12:34:06;;;;;;;4.30;1.30;;;18.30;99.90;;;;;;5042231;28;20204;-34
2023/04/23 12:36:37;;;;;;;3.25;1.20;;;18.20;99.90;;;;;;5035007;28;20214;-34
2023/04/23 12:39:30;;;;;;;3.92;1.35;;;18.10;99.90;;;;;;5035305;28;20747;-34
2023/04/23 12:42:00;;;;;;;2.90;1.27;;;18.10;99.90;;;;;;5032581;28;20216;-34
2023/04/23 12:44:30;;;;;;;3.58;1.13;;;17.90;99.90;;;;;;5036641;28;20229;-34
2023/04/23 12:47:02;;;;;;;4.35;1.60;;;17.90;99.90;;;;;;5045602;28;20389;-34
2023/04/23 12:49:30;;;;;;;2.60;1.20;;;17.80;99.90;;;;;;5023301;28;20205;-34
2023/04/23 12:52:02;;;;;;;4.05;1.40;;;17.70;99.90;;;;;;5038102;28;20625;-33
2023/04/23 12:54:31;;;;;;;6.40;1.35;;;17.60;99.90;;;;;;5043301;28;20216;-34
2023/04/23 12:57:02;;;;;;;4.40;1.52;;;17.60;99.90;;;;;;5050919;28;20268;-34